createdAt,value
2016-12-14T00:00:47.905Z,99.99
2016-12-14T00:01:47.896Z,99.99
2016-12-14T00:02:47.888Z,99.99
2016-12-14T00:03:47.902Z,99.99
2016-12-14T00:04:47.866Z,99.99
2016-12-14T00:05:47.854Z,99.99
2016-12-14T00:06:47.843Z,99.99
2016-12-14T00:07:47.830Z,99.99
2016-12-14T00:08:47.825Z,99.99
2016-12-14T00:09:47.808Z,99.99
2016-12-14T00:10:47.796Z,99.99
2016-12-14T00:11:47.786Z,99.99
2016-12-14T00:12:47.779Z,99.99
2016-12-14T00:13:47.767Z,99.99
2016-12-14T00:14:47.761Z,99.99
2016-12-14T00:15:48.052Z,99.99
2016-12-14T00:16:47.735Z,99.99
2016-12-14T00:17:47.724Z,99.99
2016-12-14T00:18:47.715Z,99.99
2016-12-14T00:19:47.705Z,99.99
2016-12-14T00:20:47.694Z,99.99
2016-12-14T00:21:47.683Z,99.99
2016-12-14T00:22:47.672Z,99.99
2016-12-14T00:23:47.661Z,99.99
2016-12-14T00:24:47.651Z,99.99
2016-12-14T00:25:47.639Z,99.99
2016-12-14T00:26:47.627Z,99.99
2016-12-14T00:27:47.619Z,99.99
2016-12-14T00:28:47.611Z,99.99
2016-12-14T00:29:47.598Z,99.99
2016-12-14T00:30:47.590Z,99.99
2016-12-14T00:31:47.575Z,99.99
2016-12-14T00:32:47.567Z,99.99
2016-12-14T00:33:47.559Z,99.99
2016-12-14T00:34:47.547Z,99.99
2016-12-14T00:35:47.537Z,99.99
2016-12-14T00:36:47.523Z,99.99
2016-12-14T00:37:47.509Z,99.99
2016-12-14T00:38:47.504Z,99.99
2016-12-14T00:39:47.489Z,99.99
2016-12-14T00:40:47.483Z,99.99
2016-12-14T00:41:47.469Z,99.99
2016-12-14T00:42:47.460Z,99.99
2016-12-14T00:43:47.450Z,99.99
2016-12-14T00:44:47.738Z,99.99
2016-12-14T00:45:47.429Z,99.99
2016-12-14T00:46:47.420Z,99.99
2016-12-14T00:47:47.408Z,99.99
2016-12-14T00:48:47.693Z,99.99
2016-12-14T00:49:47.390Z,99.99
2016-12-14T00:50:47.374Z,99.99
2016-12-14T00:51:47.364Z,99.99
2016-12-14T00:52:47.356Z,99.99
2016-12-14T00:53:47.346Z,99.99
2016-12-14T00:54:47.335Z,99.99
2016-12-14T00:55:47.325Z,99.99
2016-12-14T00:56:47.309Z,99.99
2016-12-14T00:57:47.305Z,99.99
2016-12-14T00:58:47.290Z,99.99
2016-12-14T00:59:47.281Z,99.99
2016-12-14T01:00:47.272Z,99.99
2016-12-14T01:01:47.260Z,99.99
2016-12-14T01:02:47.244Z,99.99
2016-12-14T01:03:47.235Z,99.99
2016-12-14T01:04:47.228Z,99.92
2016-12-14T01:05:47.217Z,99.99
2016-12-14T01:06:47.205Z,99.99
2016-12-14T01:07:47.196Z,99.99
2016-12-14T01:08:47.188Z,99.99
2016-12-14T01:09:47.171Z,99.99
2016-12-14T01:10:47.165Z,99.73
2016-12-14T01:11:47.155Z,99.99
2016-12-14T01:12:47.139Z,99.99
2016-12-14T01:13:47.131Z,99.99
2016-12-14T01:14:47.125Z,99.99
2016-12-14T01:15:47.118Z,99.99
2016-12-14T01:16:47.103Z,99.99
2016-12-14T01:17:47.089Z,99.99
2016-12-14T01:18:47.077Z,99.99
2016-12-14T01:19:47.068Z,99.99
2016-12-14T01:20:47.055Z,99.99
2016-12-14T01:21:47.047Z,99.99
2016-12-14T01:22:47.034Z,99.99
2016-12-14T01:23:47.027Z,99.99
2016-12-14T01:24:47.017Z,99.99
2016-12-14T01:25:47.004Z,99.99
2016-12-14T01:26:46.997Z,99.99
2016-12-14T01:27:46.984Z,99.99
2016-12-14T01:28:46.978Z,99.99
2016-12-14T01:29:46.966Z,99.99
2016-12-14T01:30:46.953Z,99.99
2016-12-14T01:31:46.946Z,99.99
2016-12-14T01:32:46.931Z,99.99
2016-12-14T01:33:47.220Z,99.99
2016-12-14T01:34:46.911Z,99.99
2016-12-14T01:35:46.900Z,99.99
2016-12-14T01:36:46.888Z,99.99
2016-12-14T01:37:46.878Z,99.99
2016-12-14T01:38:46.870Z,99.99
2016-12-14T01:39:46.859Z,99.99
2016-12-14T01:40:46.848Z,99.99
2016-12-14T01:41:46.842Z,99.99
2016-12-14T01:42:46.825Z,99.99
2016-12-14T01:43:46.816Z,99.99
2016-12-14T01:44:46.801Z,99.99
2016-12-14T01:45:46.795Z,99.99
2016-12-14T01:46:46.786Z,99.99
2016-12-14T01:47:46.774Z,99.99
2016-12-14T01:48:46.763Z,99.99
2016-12-14T01:49:46.747Z,99.99
2016-12-14T01:50:46.743Z,99.99
2016-12-14T01:51:46.729Z,99.99
2016-12-14T01:52:46.723Z,99.99
2016-12-14T01:53:46.714Z,99.99
2016-12-14T01:54:46.702Z,99.99
2016-12-14T01:55:46.688Z,99.99
2016-12-14T01:56:46.675Z,99.99
2016-12-14T01:57:46.665Z,99.99
2016-12-14T01:58:46.657Z,99.99
2016-12-14T01:59:46.645Z,99.99
2016-12-14T02:00:46.635Z,99.99
2016-12-14T02:01:46.928Z,99.99
2016-12-14T02:02:46.620Z,99.99
2016-12-14T02:03:46.607Z,99.99
2016-12-14T02:04:46.599Z,99.99
2016-12-14T02:05:46.584Z,99.99
2016-12-14T02:06:46.572Z,99.99
2016-12-14T02:07:46.873Z,99.99
2016-12-14T02:08:46.553Z,99.99
2016-12-14T02:09:46.546Z,99.99
2016-12-14T02:10:46.529Z,99.99
2016-12-14T02:11:46.519Z,99.99
2016-12-14T02:12:46.512Z,99.99
2016-12-14T02:13:46.501Z,99.99
2016-12-14T02:14:46.492Z,99.99
2016-12-14T02:15:46.481Z,99.99
2016-12-14T02:16:46.470Z,99.99
2016-12-14T02:17:46.453Z,99.99
2016-12-14T02:18:46.447Z,99.99
2016-12-14T02:19:46.437Z,99.99
2016-12-14T02:20:46.426Z,99.99
2016-12-14T02:21:46.412Z,99.99
2016-12-14T02:22:46.404Z,99.99
2016-12-14T02:23:46.398Z,99.99
2016-12-14T02:24:46.388Z,99.99
2016-12-14T02:25:46.375Z,99.99
2016-12-14T02:26:46.361Z,99.99
2016-12-14T02:27:46.356Z,99.99
2016-12-14T02:28:46.341Z,99.99
2016-12-14T02:29:46.334Z,99.99
2016-12-14T02:30:46.325Z,99.99
2016-12-14T02:31:46.313Z,99.99
2016-12-14T02:32:46.306Z,99.99
2016-12-14T02:33:46.291Z,99.99
2016-12-14T02:34:46.283Z,99.99
2016-12-14T02:35:46.268Z,99.99
2016-12-14T02:36:46.260Z,99.99
2016-12-14T02:37:46.259Z,99.99
2016-12-14T02:38:46.235Z,99.99
2016-12-14T02:39:46.225Z,99.99
2016-12-14T02:40:46.218Z,99.99
2016-12-14T02:41:46.208Z,99.99
2016-12-14T02:42:46.197Z,99.99
2016-12-14T02:43:46.181Z,99.99
2016-12-14T02:44:46.173Z,99.99
2016-12-14T02:45:46.164Z,99.99
2016-12-14T02:46:46.155Z,99.99
2016-12-14T02:47:46.146Z,99.99
2016-12-14T02:48:46.132Z,99.99
2016-12-14T02:49:46.120Z,99.99
2016-12-14T02:50:46.107Z,99.99
2016-12-14T02:51:46.102Z,99.99
2016-12-14T02:52:46.091Z,99.99
2016-12-14T02:53:46.080Z,99.99
2016-12-14T02:54:46.068Z,99.99
2016-12-14T02:55:46.058Z,99.99
2016-12-14T02:56:46.046Z,99.99
2016-12-14T02:57:46.038Z,99.99
2016-12-14T02:58:46.028Z,99.99
2016-12-14T02:59:46.019Z,99.99
2016-12-14T03:00:46.006Z,99.99
2016-12-14T03:01:45.999Z,99.99
2016-12-14T03:02:45.985Z,99.99
2016-12-14T03:03:45.975Z,99.99
2016-12-14T03:04:45.961Z,99.99
2016-12-14T03:05:45.953Z,99.99
2016-12-14T03:06:45.948Z,99.99
2016-12-14T03:07:45.936Z,99.99
2016-12-14T03:08:45.918Z,99.99
2016-12-14T03:09:45.911Z,99.99
2016-12-14T03:10:45.903Z,99.99
2016-12-14T03:11:45.888Z,99.99
2016-12-14T03:12:45.883Z,99.99
2016-12-14T03:13:45.867Z,99.99
2016-12-14T03:14:46.161Z,99.99
2016-12-14T03:15:45.850Z,99.99
2016-12-14T03:16:45.836Z,99.99
2016-12-14T03:17:45.832Z,99.99
2016-12-14T03:18:45.819Z,99.99
2016-12-14T03:19:45.806Z,99.99
2016-12-14T03:20:45.799Z,99.99
2016-12-14T03:21:46.088Z,99.99
2016-12-14T03:22:45.774Z,99.99
2016-12-14T03:23:45.768Z,99.99
2016-12-14T03:24:45.755Z,99.99
2016-12-14T03:25:45.746Z,99.99
2016-12-14T03:26:45.732Z,99.99
2016-12-14T03:27:45.727Z,99.99
2016-12-14T03:28:45.712Z,99.99
2016-12-14T03:29:45.704Z,99.99
2016-12-14T03:30:45.696Z,99.99
2016-12-14T03:31:45.687Z,99.99
2016-12-14T03:32:45.675Z,99.99
2016-12-14T03:33:45.665Z,99.99
2016-12-14T03:34:45.650Z,99.99
2016-12-14T03:35:45.639Z,99.99
2016-12-14T03:36:45.629Z,99.99
2016-12-14T03:37:45.623Z,99.99
2016-12-14T03:38:45.612Z,99.99
2016-12-14T03:39:45.603Z,99.99
2016-12-14T03:40:45.589Z,99.99
2016-12-14T03:41:45.576Z,99.99
2016-12-14T03:42:45.572Z,99.99
2016-12-14T03:43:45.563Z,99.99
2016-12-14T03:44:45.545Z,99.99
2016-12-14T03:45:45.536Z,99.99
2016-12-14T03:46:45.528Z,99.99
2016-12-14T03:47:45.516Z,99.99
2016-12-14T03:48:45.503Z,99.99
2016-12-14T03:49:45.492Z,99.99
2016-12-14T03:50:45.485Z,99.99
2016-12-14T03:51:45.475Z,99.99
2016-12-14T03:52:45.467Z,99.99
2016-12-14T03:53:45.456Z,99.99
2016-12-14T03:54:45.442Z,99.99
2016-12-14T03:55:45.435Z,99.99
2016-12-14T03:56:45.428Z,99.99
2016-12-14T03:57:45.416Z,99.99
2016-12-14T03:58:45.400Z,99.99
2016-12-14T03:59:45.392Z,99.99
2016-12-14T04:00:45.383Z,99.99
2016-12-14T04:01:45.375Z,99.99
2016-12-14T04:02:45.360Z,99.99
2016-12-14T04:03:45.355Z,99.99
2016-12-14T04:04:45.343Z,99.99
2016-12-14T04:05:45.329Z,99.99
2016-12-14T04:06:45.318Z,99.99
2016-12-14T04:07:45.307Z,99.99
2016-12-14T04:08:45.298Z,99.99
2016-12-14T04:09:45.292Z,99.99
2016-12-14T04:10:45.279Z,99.99
2016-12-14T04:11:45.270Z,99.99
2016-12-14T04:12:45.257Z,99.99
2016-12-14T04:13:45.248Z,99.99
2016-12-14T04:14:45.235Z,99.99
2016-12-14T04:15:45.227Z,99.99
2016-12-14T04:16:45.221Z,99.99
2016-12-14T04:17:45.204Z,99.99
2016-12-14T04:18:45.193Z,99.99
2016-12-14T04:19:45.189Z,99.99
2016-12-14T04:20:45.179Z,99.99
2016-12-14T04:21:45.164Z,99.99
2016-12-14T04:22:45.155Z,99.99
2016-12-14T04:23:45.452Z,99.99
2016-12-14T04:24:45.135Z,99.99
2016-12-14T04:25:45.126Z,99.99
2016-12-14T04:26:45.113Z,99.99
2016-12-14T04:27:45.101Z,99.99
2016-12-14T04:28:45.093Z,99.99
2016-12-14T04:29:45.084Z,99.99
2016-12-14T04:30:45.073Z,99.99
2016-12-14T04:31:45.065Z,99.99
2016-12-14T04:32:45.052Z,99.99
2016-12-14T04:33:45.044Z,99.99
2016-12-14T04:34:45.030Z,99.99
2016-12-14T04:35:45.029Z,99.99
2016-12-14T04:36:45.010Z,99.99
2016-12-14T04:37:45.002Z,99.99
2016-12-14T04:38:44.996Z,99.99
2016-12-14T04:39:44.980Z,99.99
2016-12-14T04:40:44.975Z,99.99
2016-12-14T04:41:44.963Z,99.99
2016-12-14T04:42:44.950Z,99.99
2016-12-14T04:43:44.941Z,99.99
2016-12-14T04:44:44.930Z,99.99
2016-12-14T04:45:44.926Z,99.99
2016-12-14T04:46:44.915Z,99.99
2016-12-14T04:47:44.902Z,99.99
2016-12-14T04:48:44.894Z,99.99
2016-12-14T04:49:44.884Z,99.99
2016-12-14T04:50:44.872Z,99.99
2016-12-14T04:51:44.864Z,99.99
2016-12-14T04:52:44.851Z,99.99
2016-12-14T04:53:44.841Z,99.99
2016-12-14T04:54:44.831Z,99.99
2016-12-14T04:55:44.820Z,99.99
2016-12-14T04:56:44.810Z,99.99
2016-12-14T04:57:44.804Z,99.99
2016-12-14T04:58:44.791Z,99.99
2016-12-14T04:59:44.779Z,99.99
2016-12-14T05:00:44.773Z,99.99
2016-12-14T05:01:44.759Z,99.99
2016-12-14T05:02:44.754Z,99.99
2016-12-14T05:03:44.744Z,99.99
2016-12-14T05:04:44.735Z,99.99
2016-12-14T05:05:44.723Z,99.99
2016-12-14T05:06:44.707Z,99.99
2016-12-14T05:07:44.711Z,99.99
2016-12-14T05:08:44.690Z,99.99
2016-12-14T05:09:44.680Z,99.99
2016-12-14T05:10:44.672Z,99.99
2016-12-14T05:11:44.663Z,99.99
2016-12-14T05:12:44.651Z,99.99
2016-12-14T05:13:44.644Z,99.99
2016-12-14T05:14:44.632Z,99.99
2016-12-14T05:15:44.623Z,99.99
2016-12-14T05:16:44.610Z,99.99
2016-12-14T05:17:44.608Z,99.99
2016-12-14T05:18:44.593Z,99.99
2016-12-14T05:19:44.584Z,99.99
2016-12-14T05:20:44.569Z,99.99
2016-12-14T05:21:44.560Z,99.99
2016-12-14T05:22:44.553Z,99.99
2016-12-14T05:23:44.543Z,99.99
2016-12-14T05:24:44.528Z,99.99
2016-12-14T05:25:44.520Z,99.99
2016-12-14T05:26:44.508Z,99.99
2016-12-14T05:27:44.500Z,99.99
2016-12-14T05:28:44.488Z,99.99
2016-12-14T05:29:44.479Z,99.99
2016-12-14T05:30:44.469Z,99.99
2016-12-14T05:31:44.461Z,99.99
2016-12-14T05:32:44.450Z,99.99
2016-12-14T05:33:44.437Z,99.99
2016-12-14T05:34:44.426Z,99.99
2016-12-14T05:35:44.414Z,99.99
2016-12-14T05:36:44.411Z,99.99
2016-12-14T05:37:44.396Z,99.99
2016-12-14T05:38:44.385Z,99.99
2016-12-14T05:39:44.379Z,99.99
2016-12-14T05:40:44.374Z,99.99
2016-12-14T05:41:44.359Z,99.99
2016-12-14T05:42:44.351Z,99.99
2016-12-14T05:43:44.342Z,99.99
2016-12-14T05:44:44.333Z,99.99
2016-12-14T05:45:44.319Z,99.99
2016-12-14T05:46:44.311Z,99.99
2016-12-14T05:47:44.301Z,99.99
2016-12-14T05:48:44.290Z,99.99
2016-12-14T05:49:44.280Z,99.99
2016-12-14T05:50:44.268Z,99.99
2016-12-14T05:51:44.257Z,99.99
2016-12-14T05:52:44.248Z,99.99
2016-12-14T05:53:44.240Z,99.99
2016-12-14T05:54:44.225Z,99.99
2016-12-14T05:55:44.229Z,99.99
2016-12-14T05:56:44.214Z,99.99
2016-12-14T05:57:44.199Z,99.99
2016-12-14T05:58:44.190Z,99.99
2016-12-14T05:59:44.177Z,99.99
2016-12-14T06:00:44.165Z,99.99
2016-12-14T06:01:44.163Z,99.99
2016-12-14T06:02:44.153Z,99.99
2016-12-14T06:03:44.144Z,99.99
2016-12-14T06:04:44.130Z,99.99
2016-12-14T06:05:44.119Z,99.99
2016-12-14T06:06:44.116Z,99.99
2016-12-14T06:07:44.101Z,99.99
2016-12-14T06:08:44.095Z,99.99
2016-12-14T06:09:44.081Z,99.99
2016-12-14T06:10:44.073Z,99.99
2016-12-14T06:11:44.056Z,99.99
2016-12-14T06:12:44.047Z,99.99
2016-12-14T06:13:44.039Z,99.99
2016-12-14T06:14:44.028Z,99.99
2016-12-14T06:15:44.023Z,99.99
2016-12-14T06:16:44.013Z,99.99
2016-12-14T06:17:44.003Z,99.99
2016-12-14T06:18:43.989Z,99.99
2016-12-14T06:19:43.983Z,99.99
2016-12-14T06:20:43.975Z,99.99
2016-12-14T06:21:43.967Z,99.99
2016-12-14T06:22:43.952Z,99.99
2016-12-14T06:23:43.944Z,99.99
2016-12-14T06:24:43.932Z,99.99
2016-12-14T06:25:43.920Z,99.99
2016-12-14T06:26:43.916Z,99.99
2016-12-14T06:27:43.904Z,99.99
2016-12-14T06:28:43.892Z,99.99
2016-12-14T06:29:43.891Z,99.99
2016-12-14T06:30:43.874Z,99.99
2016-12-14T06:31:43.862Z,99.99
2016-12-14T06:32:43.852Z,99.99
2016-12-14T06:33:43.840Z,99.99
2016-12-14T06:34:43.840Z,99.99
2016-12-14T06:35:43.823Z,99.99
2016-12-14T06:36:43.816Z,99.99
2016-12-14T06:37:43.801Z,99.99
2016-12-14T06:38:43.795Z,99.99
2016-12-14T06:39:43.781Z,99.99
2016-12-14T06:40:43.775Z,99.99
2016-12-14T06:41:43.768Z,99.99
2016-12-14T06:42:43.757Z,99.99
2016-12-14T06:43:43.748Z,99.99
2016-12-14T06:44:43.731Z,99.99
2016-12-14T06:45:43.726Z,99.99
2016-12-14T06:46:43.714Z,99.99
2016-12-14T06:47:43.707Z,99.99
2016-12-14T06:48:43.692Z,99.99
2016-12-14T06:49:43.684Z,99.99
2016-12-14T06:50:43.681Z,99.99
2016-12-14T06:51:43.662Z,99.99
2016-12-14T06:52:43.658Z,99.99
2016-12-14T06:53:43.652Z,99.99
2016-12-14T06:54:43.635Z,99.99
2016-12-14T06:55:43.626Z,99.99
2016-12-14T06:56:43.619Z,99.99
2016-12-14T06:57:43.612Z,99.99
2016-12-14T06:58:43.594Z,99.99
2016-12-14T06:59:43.584Z,99.99
2016-12-14T07:00:43.576Z,99.99
2016-12-14T07:01:43.569Z,99.99
2016-12-14T07:02:43.556Z,99.99
2016-12-14T07:03:43.546Z,99.99
2016-12-14T07:04:43.539Z,99.99
2016-12-14T07:05:43.527Z,99.99
2016-12-14T07:06:43.518Z,99.99
2016-12-14T07:07:43.505Z,99.99
2016-12-14T07:08:43.497Z,99.99
2016-12-14T07:09:43.487Z,99.99
2016-12-14T07:10:43.482Z,99.99
2016-12-14T07:11:43.469Z,99.99
2016-12-14T07:12:43.463Z,99.99
2016-12-14T07:13:43.448Z,99.99
2016-12-14T07:14:43.439Z,99.99
2016-12-14T07:15:43.428Z,99.99
2016-12-14T07:16:43.419Z,99.99
2016-12-14T07:17:43.410Z,99.99
2016-12-14T07:18:43.403Z,99.99
2016-12-14T07:19:43.394Z,99.99
2016-12-14T07:20:43.383Z,99.99
2016-12-14T07:21:43.368Z,99.99
2016-12-14T07:22:43.361Z,99.99
2016-12-14T07:23:43.353Z,99.99
2016-12-14T07:24:43.340Z,99.99
2016-12-14T07:25:43.330Z,99.99
2016-12-14T07:26:43.323Z,99.99
2016-12-14T07:27:43.317Z,99.99
2016-12-14T07:28:43.304Z,99.99
2016-12-14T07:29:43.296Z,99.99
2016-12-14T07:30:43.287Z,99.99
2016-12-14T07:31:43.272Z,99.99
2016-12-14T07:32:43.261Z,99.99
2016-12-14T07:33:43.251Z,99.99
2016-12-14T07:34:43.243Z,99.99
2016-12-14T07:35:43.233Z,99.99
2016-12-14T07:36:43.225Z,99.99
2016-12-14T07:37:43.212Z,99.99
2016-12-14T07:38:43.205Z,99.99
2016-12-14T07:39:43.198Z,99.99
2016-12-14T07:40:43.185Z,99.99
2016-12-14T07:41:43.175Z,99.99
2016-12-14T07:42:43.167Z,99.99
2016-12-14T07:43:43.158Z,99.99
2016-12-14T07:44:43.150Z,99.99
2016-12-14T07:45:43.144Z,99.99
2016-12-14T07:46:43.136Z,99.99
2016-12-14T07:47:43.120Z,99.99
2016-12-14T07:48:43.110Z,99.99
2016-12-14T07:49:43.098Z,99.99
2016-12-14T07:50:43.088Z,99.99
2016-12-14T07:51:43.084Z,99.99
2016-12-14T07:52:43.071Z,99.99
2016-12-14T07:53:43.062Z,99.99
2016-12-14T07:54:43.049Z,99.99
2016-12-14T07:55:43.042Z,99.99
2016-12-14T07:56:43.036Z,99.99
2016-12-14T07:57:43.028Z,99.99
2016-12-14T07:58:43.015Z,99.99
2016-12-14T07:59:43.004Z,99.99
2016-12-14T08:00:42.996Z,99.99
2016-12-14T08:01:42.984Z,99.99
2016-12-14T08:02:42.975Z,99.99
2016-12-14T08:03:42.968Z,99.99
2016-12-14T08:04:42.961Z,99.99
2016-12-14T08:05:42.946Z,99.99
2016-12-14T08:06:42.938Z,99.99
2016-12-14T08:07:42.927Z,99.99
2016-12-14T08:08:42.916Z,99.99
2016-12-14T08:09:42.905Z,99.99
2016-12-14T08:10:42.897Z,99.78
2016-12-14T08:11:42.892Z,98.74
2016-12-14T08:12:42.875Z,98.83
2016-12-14T08:13:42.866Z,98.55
2016-12-14T08:14:42.862Z,98.74
2016-12-14T08:15:42.855Z,99.21
2016-12-14T08:16:42.838Z,99.69
2016-12-14T08:17:42.830Z,99.59
2016-12-14T08:18:42.820Z,99.69
2016-12-14T08:19:42.810Z,99.97
2016-12-14T08:20:42.801Z,99.99
2016-12-14T08:21:42.793Z,99.99
2016-12-14T08:22:42.778Z,99.5
2016-12-14T08:23:42.768Z,99.59
2016-12-14T08:24:42.764Z,98.83
2016-12-14T08:25:42.749Z,98.88
2016-12-14T08:26:42.743Z,99.35
2016-12-14T08:27:42.734Z,98.79
2016-12-14T08:28:42.719Z,98.69
2016-12-14T08:29:42.712Z,98.4
2016-12-14T08:30:42.708Z,98.79
2016-12-14T08:31:42.692Z,98.4
2016-12-14T08:32:42.681Z,98.12
2016-12-14T08:33:42.671Z,98.69
2016-12-14T08:34:42.659Z,98.5
2016-12-14T08:35:42.650Z,98.88
2016-12-14T08:36:42.639Z,98.59
2016-12-14T08:37:42.633Z,96.98
2016-12-14T08:38:42.620Z,96.88
2016-12-14T08:39:42.609Z,96.6
2016-12-14T08:40:42.606Z,96.31
2016-12-14T08:41:42.590Z,96.6
2016-12-14T08:42:42.586Z,96.88
2016-12-14T08:43:42.573Z,97.27
2016-12-14T08:44:42.560Z,97.45
2016-12-14T08:45:42.550Z,97.07
2016-12-14T08:46:42.739Z,96.69
2016-12-14T08:47:42.533Z,96.5
2016-12-14T08:48:42.521Z,96.98
2016-12-14T08:49:42.512Z,96.12
2016-12-14T08:50:42.498Z,95.55
2016-12-14T08:51:42.486Z,96.41
2016-12-14T08:52:42.475Z,96.6
2016-12-14T08:53:42.465Z,96.6
2016-12-14T08:54:42.456Z,97.41
2016-12-14T08:55:42.448Z,97.41
2016-12-14T08:56:42.435Z,96.98
2016-12-14T08:57:42.426Z,96.31
2016-12-14T08:58:42.418Z,97.12
2016-12-14T08:59:42.406Z,97.22
2016-12-14T09:00:42.396Z,97.6
2016-12-14T09:01:42.385Z,97.07
2016-12-14T09:02:42.378Z,97.41
2016-12-14T09:03:42.364Z,98.02
2016-12-14T09:04:42.357Z,97.97
2016-12-14T09:05:42.343Z,97.45
2016-12-14T09:06:42.333Z,97.45
2016-12-14T09:07:42.327Z,97.07
2016-12-14T09:08:42.312Z,97.07
2016-12-14T09:09:42.304Z,97.74
2016-12-14T09:10:42.293Z,97.07
2016-12-14T09:11:42.281Z,96.6
2016-12-14T09:12:42.274Z,97.27
2016-12-14T09:13:42.259Z,97.45
2016-12-14T09:14:42.249Z,95.75
2016-12-14T09:15:42.238Z,97.07
2016-12-14T09:16:42.228Z,96.5
2016-12-14T09:17:42.528Z,96.88
2016-12-14T09:18:42.206Z,97.27
2016-12-14T09:19:42.198Z,96.88
2016-12-14T09:20:42.190Z,96.12
2016-12-14T09:21:42.177Z,97.07
2016-12-14T09:22:42.168Z,96.88
2016-12-14T09:23:42.155Z,97.17
2016-12-14T09:24:42.149Z,97.45
2016-12-14T09:25:42.138Z,97.07
2016-12-14T09:26:42.126Z,97.64
2016-12-14T09:27:42.113Z,97.74
2016-12-14T09:28:42.132Z,97.83
2016-12-14T09:29:42.092Z,97.27
2016-12-14T09:30:42.085Z,96.5
2016-12-14T09:31:42.076Z,96.79
2016-12-14T09:32:42.060Z,97.64
2016-12-14T09:33:42.058Z,97.64
2016-12-14T09:34:42.045Z,97.83
2016-12-14T09:35:42.032Z,98.12
2016-12-14T09:36:42.021Z,98.21
2016-12-14T09:37:42.014Z,98.79
2016-12-14T09:38:42.004Z,98.4
2016-12-14T09:39:41.990Z,97.83
2016-12-14T09:40:42.283Z,97.12
2016-12-14T09:41:41.973Z,97.22
2016-12-14T09:42:41.968Z,97.5
2016-12-14T09:43:41.984Z,96.93
2016-12-14T09:44:41.945Z,96.74
2016-12-14T09:45:41.934Z,95.6
2016-12-14T09:46:41.922Z,95.65
2016-12-14T09:47:41.909Z,96.26
2016-12-14T09:48:41.908Z,96.41
2016-12-14T09:49:41.894Z,96.41
2016-12-14T09:50:41.882Z,96.79
2016-12-14T09:51:41.872Z,97.07
2016-12-14T09:52:41.873Z,96.31
2016-12-14T09:53:41.854Z,96.41
2016-12-14T09:54:41.844Z,96.79
2016-12-14T09:55:41.834Z,95.75
2016-12-14T09:56:41.822Z,95.94
2016-12-14T09:57:41.817Z,96.12
2016-12-14T09:58:41.808Z,96.88
2016-12-14T09:59:41.796Z,96.6
2016-12-14T10:00:41.787Z,97.27
2016-12-14T10:01:41.774Z,97.83
2016-12-14T10:02:41.770Z,97.69
2016-12-14T10:03:41.783Z,98.07
2016-12-14T10:04:41.747Z,97.69
2016-12-14T10:05:41.730Z,96.84
2016-12-14T10:06:41.721Z,97.22
2016-12-14T10:07:41.715Z,97.22
2016-12-14T10:08:41.704Z,96.65
2016-12-14T10:09:41.701Z,97.12
2016-12-14T10:10:41.684Z,97.03
2016-12-14T10:11:41.973Z,97.31
2016-12-14T10:12:41.667Z,97.31
2016-12-14T10:13:41.660Z,97.5
2016-12-14T10:14:41.648Z,97.12
2016-12-14T10:15:41.636Z,97.69
2016-12-14T10:16:41.623Z,97.31
2016-12-14T10:17:41.617Z,97.03
2016-12-14T10:18:41.611Z,95.79
2016-12-14T10:19:41.602Z,95.98
2016-12-14T10:20:41.589Z,95.32
2016-12-14T10:21:41.581Z,94.93
2016-12-14T10:22:41.569Z,95.51
2016-12-14T10:23:41.562Z,94.74
2016-12-14T10:24:41.552Z,95.98
2016-12-14T10:25:41.544Z,95.6
2016-12-14T10:26:41.531Z,97.31
2016-12-14T10:27:41.526Z,97.31
2016-12-14T10:28:41.512Z,97.5
2016-12-14T10:29:41.800Z,96.17
2016-12-14T10:30:41.795Z,95.12
2016-12-14T10:31:41.488Z,93.89
2016-12-14T10:32:41.475Z,94.18
2016-12-14T10:33:41.464Z,95.32
2016-12-14T10:34:41.458Z,96.26
2016-12-14T10:35:41.443Z,96.26
2016-12-14T10:36:41.439Z,96.36
2016-12-14T10:37:41.433Z,95.98
2016-12-14T10:38:41.422Z,96.74
2016-12-14T10:39:41.408Z,97.22
2016-12-14T10:40:41.402Z,96.65
2016-12-14T10:41:41.389Z,93.6
2016-12-14T10:42:41.380Z,92.27
2016-12-14T10:43:41.373Z,93.51
2016-12-14T10:44:41.365Z,92.66
2016-12-14T10:45:41.347Z,93.32
2016-12-14T10:46:41.343Z,94.18
2016-12-14T10:47:41.330Z,93.6
2016-12-14T10:48:41.327Z,95.22
2016-12-14T10:49:41.316Z,95.6
2016-12-14T10:50:41.306Z,95.98
2016-12-14T10:51:41.299Z,95.03
2016-12-14T10:52:41.294Z,95.46
2016-12-14T10:53:41.280Z,96.69
2016-12-14T10:54:41.272Z,95.08
2016-12-14T10:55:41.262Z,95.27
2016-12-14T10:56:41.253Z,95.27
2016-12-14T10:57:41.239Z,95.65
2016-12-14T10:58:41.231Z,96.69
2016-12-14T10:59:41.220Z,96.89
2016-12-14T11:00:41.213Z,97.27
2016-12-14T11:01:41.200Z,97.64
2016-12-14T11:02:41.198Z,97.31
2016-12-14T11:03:41.189Z,97.6
2016-12-14T11:04:41.204Z,97.79
2016-12-14T11:05:41.169Z,97.79
2016-12-14T11:06:41.166Z,97.41
2016-12-14T11:07:41.153Z,95.6
2016-12-14T11:08:41.145Z,95.22
2016-12-14T11:09:41.136Z,94.74
2016-12-14T11:10:41.129Z,95.12
2016-12-14T11:11:41.119Z,93.98
2016-12-14T11:12:41.112Z,94.27
2016-12-14T11:13:41.102Z,95.51
2016-12-14T11:14:41.091Z,92.75
2016-12-14T11:15:41.083Z,91.61
2016-12-14T11:16:41.073Z,91.61
2016-12-14T11:17:41.068Z,91.51
2016-12-14T11:18:41.059Z,92.46
2016-12-14T11:19:41.049Z,92.08
2016-12-14T11:20:41.044Z,92.84
2016-12-14T11:21:41.034Z,92.84
2016-12-14T11:22:41.027Z,92.94
2016-12-14T11:23:41.013Z,93.89
2016-12-14T11:24:41.006Z,93.89
2016-12-14T11:25:41.005Z,93.51
2016-12-14T11:26:40.989Z,92.84
2016-12-14T11:27:40.982Z,90.18
2016-12-14T11:28:40.971Z,91.51
2016-12-14T11:29:40.961Z,92.65
2016-12-14T11:30:40.954Z,92.08
2016-12-14T11:31:40.945Z,90.75
2016-12-14T11:32:40.938Z,91.99
2016-12-14T11:33:40.931Z,91.99
2016-12-14T11:34:40.923Z,92.65
2016-12-14T11:35:40.915Z,93.51
2016-12-14T11:36:40.901Z,93.6
2016-12-14T11:37:40.891Z,90.47
2016-12-14T11:38:40.888Z,91.08
2016-12-14T11:39:40.876Z,91.66
2016-12-14T11:40:40.867Z,91.42
2016-12-14T11:41:40.863Z,90.33
2016-12-14T11:42:40.854Z,88.33
2016-12-14T11:43:40.844Z,87.85
2016-12-14T11:44:40.835Z,88.71
2016-12-14T11:45:40.825Z,88.13
2016-12-14T11:46:40.817Z,88.9
2016-12-14T11:47:40.807Z,90.61
2016-12-14T11:48:40.796Z,90.8
2016-12-14T11:49:40.793Z,90.89
2016-12-14T11:50:40.780Z,90.42
2016-12-14T11:51:40.774Z,90.14
2016-12-14T11:52:40.763Z,90.33
2016-12-14T11:53:40.762Z,91.66
2016-12-14T11:54:41.041Z,91.56
2016-12-14T11:55:40.737Z,92.03
2016-12-14T11:56:40.724Z,92.51
2016-12-14T11:57:40.718Z,90.99
2016-12-14T11:58:40.707Z,90.8
2016-12-14T11:59:40.704Z,90.7
2016-12-14T12:00:40.687Z,90.33
2016-12-14T12:01:40.683Z,91.08
2016-12-14T12:02:40.680Z,89.85
2016-12-14T12:03:40.671Z,90.28
2016-12-14T12:04:40.661Z,90
2016-12-14T12:05:40.653Z,90.19
2016-12-14T12:06:40.645Z,90.66
2016-12-14T12:07:40.632Z,90.56
2016-12-14T12:08:40.925Z,90.85
2016-12-14T12:09:40.615Z,91.89
2016-12-14T12:10:40.606Z,91.33
2016-12-14T12:11:40.596Z,91.89
2016-12-14T12:12:40.593Z,91.89
2016-12-14T12:13:40.581Z,90
2016-12-14T12:14:40.570Z,91.42
2016-12-14T12:15:40.559Z,91.71
2016-12-14T12:16:40.548Z,90.85
2016-12-14T12:17:40.539Z,90.94
2016-12-14T12:18:40.530Z,90.56
2016-12-14T12:19:40.522Z,89.8
2016-12-14T12:20:40.511Z,90.19
2016-12-14T12:21:40.503Z,91.33
2016-12-14T12:22:40.492Z,91.61
2016-12-14T12:23:40.485Z,90.85
2016-12-14T12:24:40.473Z,90.19
2016-12-14T12:25:40.466Z,90.66
2016-12-14T12:26:40.456Z,91.99
2016-12-14T12:27:40.445Z,92.94
2016-12-14T12:28:40.440Z,93.13
2016-12-14T12:29:40.429Z,93.13
2016-12-14T12:30:40.418Z,94.18
2016-12-14T12:31:40.410Z,94.08
2016-12-14T12:32:40.399Z,94.32
2016-12-14T12:33:40.390Z,93.75
2016-12-14T12:34:40.381Z,93.46
2016-12-14T12:35:40.372Z,92.22
2016-12-14T12:36:40.361Z,92.03
2016-12-14T12:37:40.353Z,90.8
2016-12-14T12:38:40.346Z,91.08
2016-12-14T12:39:40.333Z,91.18
2016-12-14T12:40:40.325Z,91.94
2016-12-14T12:41:40.316Z,92.13
2016-12-14T12:42:40.308Z,91.85
2016-12-14T12:43:40.299Z,92.22
2016-12-14T12:44:40.290Z,92.8
2016-12-14T12:45:40.279Z,90.7
2016-12-14T12:46:40.272Z,91.28
2016-12-14T12:47:40.258Z,92.03
2016-12-14T12:48:40.249Z,93.55
2016-12-14T12:49:40.238Z,94.13
2016-12-14T12:50:40.229Z,94.79
2016-12-14T12:51:40.220Z,92.41
2016-12-14T12:52:40.212Z,91.56
2016-12-14T12:53:40.203Z,90.99